createdAt,value
2018-09-08T00:04:48.921Z,85.10
2018-09-08T00:10:11.776Z,84.90
2018-09-08T00:15:38.691Z,86.80
2018-09-08T00:21:05.218Z,86.40
2018-09-08T00:26:31.997Z,86.70
2018-09-08T00:31:54.485Z,87.50
2018-09-08T00:37:16.410Z,86.70
2018-09-08T00:42:38.618Z,86.90
2018-09-08T00:48:00.361Z,87.30
2018-09-08T00:53:22.460Z,87.20
2018-09-08T00:58:49.071Z,87.20
2018-09-08T01:04:11.214Z,86.90
2018-09-08T01:09:33.211Z,86.70
2018-09-08T01:14:55.327Z,86.80
2018-09-08T01:20:17.060Z,86.70
2018-09-08T01:25:39.501Z,86.80
2018-09-08T01:31:01.728Z,86.60
2018-09-08T01:36:23.506Z,87.00
2018-09-08T01:41:45.621Z,87.30
2018-09-08T01:47:07.782Z,87.40
2018-09-08T01:52:29.897Z,86.80
2018-09-08T01:57:52.193Z,87.00
2018-09-08T02:03:14.050Z,87.30
2018-09-08T02:08:36.026Z,87.50
2018-09-08T02:13:57.962Z,87.60
2018-09-08T02:19:20.149Z,86.80
2018-09-08T02:24:42.020Z,85.80
2018-09-08T02:30:04.065Z,85.00
2018-09-08T02:35:25.999Z,85.30
2018-09-08T02:40:47.907Z,85.90
2018-09-08T02:46:09.729Z,85.80
2018-09-08T02:51:29.570Z,85.10
2018-09-08T02:56:49.257Z,85.90
2018-09-08T03:02:09.015Z,85.50
2018-09-08T03:07:28.722Z,83.60
2018-09-08T03:12:48.662Z,82.50
2018-09-08T03:18:08.742Z,82.90
2018-09-08T03:23:28.437Z,83.50
2018-09-08T03:28:48.046Z,84.50
2018-09-08T03:34:07.676Z,83.90
2018-09-08T03:39:27.174Z,84.10
2018-09-08T03:44:46.846Z,84.60
2018-09-08T03:50:06.771Z,86.30
2018-09-08T03:55:26.882Z,87.70
2018-09-08T04:00:46.455Z,88.20
2018-09-08T04:06:08.315Z,88.80
2018-09-08T04:11:30.356Z,86.30
2018-09-08T04:16:52.226Z,87.00
2018-09-08T04:22:14.254Z,87.80
2018-09-08T04:27:36.291Z,87.90
2018-09-08T04:32:58.427Z,87.90
2018-09-08T04:38:20.210Z,89.10
2018-09-08T04:43:42.205Z,89.30
2018-09-08T04:49:04.103Z,89.20
2018-09-08T04:54:27.445Z,89.40
2018-09-08T04:59:49.383Z,89.50
2018-09-08T05:05:11.676Z,89.30
2018-09-08T05:10:33.458Z,89.10
2018-09-08T05:15:55.506Z,89.20
2018-09-08T05:21:17.346Z,88.80
2018-09-08T05:26:39.610Z,88.50
2018-09-08T05:32:01.414Z,88.20
2018-09-08T05:37:25.125Z,88.50
2018-09-08T05:42:47.040Z,88.70
2018-09-08T05:48:08.930Z,89.30
2018-09-08T05:53:31.258Z,89.50
2018-09-08T05:58:53.394Z,89.90
2018-09-08T06:04:15.773Z,88.90
2018-09-08T06:09:37.610Z,89.00
2018-09-08T06:14:59.788Z,89.10
2018-09-08T06:20:21.558Z,89.20
2018-09-08T06:25:43.662Z,89.20
2018-09-08T06:31:05.573Z,90.10
2018-09-08T06:36:27.845Z,90.50
2018-09-08T06:41:49.818Z,90.60
2018-09-08T06:47:11.963Z,90.80
2018-09-08T06:52:33.977Z,91.00
2018-09-08T06:57:56.097Z,91.20
2018-09-08T07:03:17.976Z,91.10
2018-09-08T07:08:40.150Z,91.10
2018-09-08T07:14:02.002Z,90.80
2018-09-08T07:19:24.035Z,90.70
2018-09-08T07:24:45.734Z,90.60
2018-09-08T07:30:07.610Z,90.20
2018-09-08T07:35:30.934Z,90.00
2018-09-08T07:40:52.981Z,89.80
2018-09-08T07:46:15.009Z,89.30
2018-09-08T07:51:36.689Z,88.40
2018-09-08T07:56:58.661Z,86.60
2018-09-08T08:02:20.455Z,86.70
2018-09-08T08:07:43.242Z,85.40
2018-09-08T08:13:05.335Z,83.20
2018-09-08T08:18:27.159Z,82.40
2018-09-08T08:23:49.258Z,78.70
2018-09-08T08:29:11.003Z,73.40
2018-09-08T08:34:33.110Z,70.20
2018-09-08T08:39:55.002Z,69.60
2018-09-08T08:45:17.259Z,64.50
2018-09-08T08:50:49.058Z,64.30
2018-09-08T08:56:11.945Z,63.80
2018-09-08T09:01:33.921Z,60.90
2018-09-08T09:06:56.545Z,59.40
2018-09-08T09:12:18.873Z,59.20
2018-09-08T09:17:40.777Z,58.20
2018-09-08T09:23:17.112Z,56.40
2018-09-08T09:28:38.381Z,56.50
2018-09-08T09:34:00.492Z,55.20
2018-09-08T09:39:22.386Z,54.20
2018-09-08T09:44:44.507Z,52.60
2018-09-08T09:50:06.528Z,52.60
2018-09-08T09:55:28.503Z,52.80
2018-09-08T10:00:55.206Z,52.60
2018-09-08T10:06:17.187Z,53.10
2018-09-08T10:11:39.113Z,53.70
2018-09-08T10:17:01.164Z,55.30
2018-09-08T10:22:22.862Z,54.90
2018-09-08T10:27:45.622Z,55.10
2018-09-08T10:33:07.734Z,55.30
2018-09-08T10:38:29.560Z,55.20
2018-09-08T10:43:51.697Z,53.90
2018-09-08T10:49:13.622Z,53.80
2018-09-08T10:54:35.895Z,55.60
2018-09-08T10:59:57.916Z,56.40
2018-09-08T11:05:19.789Z,55.80
2018-09-08T11:10:42.034Z,55.00
2018-09-08T11:16:04.308Z,55.20
2018-09-08T11:21:26.466Z,54.50
2018-09-08T11:26:48.414Z,54.70
2018-09-08T11:32:10.443Z,57.00
2018-09-08T11:37:32.334Z,57.70
2018-09-08T11:42:54.425Z,57.20
2018-09-08T11:48:16.116Z,57.50
2018-09-08T11:53:38.345Z,56.30
2018-09-08T11:59:00.362Z,55.40
2018-09-08T12:04:22.366Z,56.80
2018-09-08T12:09:44.103Z,56.60
2018-09-08T12:15:07.735Z,57.00
2018-09-08T12:20:29.954Z,58.10
2018-09-08T12:25:52.831Z,57.80
2018-09-08T12:31:14.720Z,57.70
2018-09-08T12:36:38.902Z,59.70
2018-09-08T12:42:00.775Z,60.50
2018-09-08T12:47:24.476Z,60.60
2018-09-08T12:52:46.695Z,63.10
2018-09-08T12:58:09.884Z,62.10
2018-09-08T13:03:31.838Z,61.60
2018-09-08T13:08:53.898Z,61.50
2018-09-08T13:14:15.660Z,61.80
2018-09-08T13:19:40.172Z,61.90
2018-09-08T13:25:02.254Z,62.20
2018-09-08T13:30:24.598Z,62.90
2018-09-08T13:35:48.042Z,63.60
2018-09-08T13:41:10.650Z,63.80
2018-09-08T13:46:32.789Z,64.70
2018-09-08T13:51:54.578Z,64.60
2018-09-08T13:57:17.005Z,64.20
2018-09-08T14:02:39.177Z,65.20
2018-09-08T14:08:05.906Z,63.70
2018-09-08T14:13:28.273Z,63.20
2018-09-08T14:18:52.030Z,63.70
2018-09-08T14:24:14.372Z,63.40
2018-09-08T14:29:36.962Z,62.90
2018-09-08T14:34:59.187Z,64.50
2018-09-08T14:40:22.759Z,64.60
2018-09-08T14:45:45.046Z,65.00
2018-09-08T14:51:06.807Z,64.50
2018-09-08T14:56:31.971Z,65.00
2018-09-08T15:01:53.834Z,65.50
2018-09-08T15:07:16.373Z,65.00
2018-09-08T15:12:38.416Z,65.70
2018-09-08T15:18:00.286Z,66.10
2018-09-08T15:23:22.394Z,67.30
2018-09-08T15:28:44.166Z,68.30
2018-09-08T15:34:06.277Z,67.30
2018-09-08T15:39:28.894Z,68.50
2018-09-08T15:44:51.208Z,66.40
2018-09-08T15:50:13.435Z,65.80
2018-09-08T15:55:35.114Z,67.30
2018-09-08T16:00:57.343Z,68.10
2018-09-08T16:06:19.258Z,68.80
2018-09-08T16:11:41.471Z,68.40
2018-09-08T16:17:05.261Z,68.00
2018-09-08T16:22:27.613Z,65.70
2018-09-08T16:27:49.510Z,65.90
2018-09-08T16:33:11.503Z,66.20
2018-09-08T16:38:33.562Z,66.00
2018-09-08T16:43:55.894Z,65.10
2018-09-08T16:49:17.830Z,66.90
2018-09-08T16:54:40.050Z,67.00
2018-09-08T17:00:01.760Z,66.80
2018-09-08T17:05:23.983Z,69.20
2018-09-08T17:10:47.176Z,69.80
2018-09-08T17:16:09.561Z,70.20
2018-09-08T17:21:31.385Z,70.10
2018-09-08T17:26:53.500Z,70.30
2018-09-08T17:32:15.713Z,68.40
2018-09-08T17:37:37.756Z,68.80
2018-09-08T17:42:59.658Z,67.80
2018-09-08T17:48:21.791Z,67.30
2018-09-08T17:53:44.139Z,68.10
2018-09-08T17:59:05.902Z,70.30
2018-09-08T18:04:28.095Z,73.80
2018-09-08T18:09:49.974Z,75.90
2018-09-08T18:15:12.181Z,77.10
2018-09-08T18:20:33.996Z,77.40
2018-09-08T18:25:56.489Z,78.90
2018-09-08T18:31:18.182Z,81.10
2018-09-08T18:36:40.267Z,81.40
2018-09-08T18:42:02.208Z,81.50
2018-09-08T18:47:24.354Z,81.60
2018-09-08T18:52:47.298Z,81.20
2018-09-08T18:58:09.326Z,81.90
2018-09-08T19:03:31.259Z,81.70
2018-09-08T19:08:52.908Z,81.10
2018-09-08T19:14:19.891Z,80.50
2018-09-08T19:19:41.517Z,80.10
2018-09-08T19:25:03.903Z,81.20
2018-09-08T19:30:25.717Z,80.00
2018-09-08T19:35:47.814Z,80.50
2018-09-08T19:41:09.687Z,81.20
2018-09-08T19:46:36.491Z,79.80
2018-09-08T19:51:58.943Z,80.20
2018-09-08T19:57:25.854Z,81.50
2018-09-08T20:02:48.033Z,82.40
2018-09-08T20:08:09.997Z,82.90
2018-09-08T20:13:32.091Z,82.90
2018-09-08T20:18:53.843Z,83.60
2018-09-08T20:24:15.998Z,83.60
2018-09-08T20:29:38.506Z,84.00
2018-09-08T20:35:00.627Z,82.50
2018-09-08T20:40:23.555Z,81.90
2018-09-08T20:45:46.419Z,82.10
2018-09-08T20:51:08.420Z,83.30
2018-09-08T20:56:30.679Z,83.00
2018-09-08T21:01:52.580Z,81.80
2018-09-08T21:07:15.247Z,80.90
2018-09-08T21:12:37.682Z,80.50
2018-09-08T21:17:59.989Z,81.60
2018-09-08T21:23:21.983Z,82.10
2018-09-08T21:28:44.096Z,82.00
2018-09-08T21:34:07.371Z,81.80
2018-09-08T21:39:29.419Z,81.90
2018-09-08T21:44:51.382Z,83.40
2018-09-08T21:50:13.454Z,81.90
2018-09-08T21:55:36.340Z,81.80
2018-09-08T22:01:07.435Z,81.10
2018-09-08T22:06:29.615Z,80.40
2018-09-08T22:11:51.741Z,80.00
2018-09-08T22:17:13.753Z,81.00
2018-09-08T22:22:37.117Z,83.10
2018-09-08T22:27:59.086Z,82.20
2018-09-08T22:33:20.900Z,83.20
2018-09-08T22:38:44.677Z,83.50
2018-09-08T22:44:07.272Z,83.00
2018-09-08T22:49:28.962Z,83.40
2018-09-08T22:54:51.065Z,83.40
2018-09-08T23:00:12.774Z,83.30
2018-09-08T23:05:34.908Z,85.30
2018-09-08T23:10:57.456Z,86.20
2018-09-08T23:16:21.619Z,84.20
2018-09-08T23:21:43.804Z,82.70
2018-09-08T23:27:05.758Z,85.30
2018-09-08T23:32:28.842Z,84.40
2018-09-08T23:37:50.931Z,83.70
2018-09-08T23:43:12.885Z,83.40
2018-09-08T23:48:35.071Z,83.20
2018-09-08T23:53:56.950Z,83.60
2018-09-08T23:59:19.074Z,82.80
